createdAt,value
2022-10-19T00:04:48.692Z,101329.75
2022-10-19T00:09:51.373Z,101320.31
2022-10-19T00:14:55.333Z,101325.63
2022-10-19T00:19:58.288Z,101317.03
2022-10-19T00:25:00.906Z,101321.31
2022-10-19T00:30:05.967Z,101322.28
2022-10-19T00:35:09.103Z,101313.94
2022-10-19T00:40:12.605Z,101311.59
2022-10-19T00:45:18.731Z,101309.09
2022-10-19T00:50:21.523Z,101310.06
2022-10-19T00:55:24.671Z,101309.66
2022-10-19T01:00:28.639Z,101311.03
2022-10-19T01:05:32.103Z,101299.78
2022-10-19T01:10:55.794Z,101295.47
2022-10-19T01:16:15.657Z,101293.97
2022-10-19T01:21:22.624Z,101305.91
2022-10-19T01:26:37.730Z,101297.44
2022-10-19T01:31:46.693Z,101307.41
2022-10-19T01:36:56.036Z,101298.25
2022-10-19T01:42:03.125Z,101294.09
2022-10-19T01:47:09.083Z,101301.13
2022-10-19T01:52:14.373Z,101298.91
2022-10-19T01:57:21.562Z,101305.06
2022-10-19T02:02:26.602Z,101304.06
2022-10-19T02:07:29.423Z,101303.91
2022-10-19T02:12:32.986Z,101310.84
2022-10-19T02:17:41.604Z,101305.03
2022-10-19T02:22:44.683Z,101308.94
2022-10-19T02:27:47.286Z,101306.03
2022-10-19T02:32:51.711Z,101302.53
2022-10-19T02:37:54.509Z,101300.88
2022-10-19T02:43:00.136Z,101290.22
2022-10-19T02:48:07.288Z,101278.13
2022-10-19T02:53:10.090Z,101281.34
2022-10-19T02:58:12.701Z,101281.88
2022-10-19T03:03:16.628Z,101282.69
2022-10-19T03:08:19.254Z,101282.25
2022-10-19T03:13:21.828Z,101286.13
2022-10-19T03:18:25.788Z,101300.78
2022-10-19T03:23:28.338Z,101295.28
2022-10-19T03:28:31.371Z,101289.75
2022-10-19T03:33:35.348Z,101294.97
2022-10-19T03:38:37.953Z,101303.44
2022-10-19T03:43:41.171Z,101304.56
2022-10-19T03:48:45.164Z,101313.03
2022-10-19T03:53:48.162Z,101316.25
2022-10-19T03:58:51.922Z,101308.19
2022-10-19T04:03:56.075Z,101307.25
2022-10-19T04:08:59.254Z,101288.81
2022-10-19T04:14:02.883Z,101305.81
2022-10-19T04:19:07.224Z,101301.69
2022-10-19T04:24:12.834Z,101317.31
2022-10-19T04:29:16.018Z,101310.06
2022-10-19T04:34:20.511Z,101308.41
2022-10-19T04:39:23.276Z,101323.50
2022-10-19T04:44:26.028Z,101322.91
2022-10-19T04:49:30.201Z,101326.38
2022-10-19T04:54:32.800Z,101326.38
2022-10-19T04:59:35.580Z,101327.97
2022-10-19T05:04:41.828Z,101324.63
2022-10-19T05:09:47.668Z,101323.66
2022-10-19T05:14:50.273Z,101322.56
2022-10-19T05:19:54.453Z,101329.22
2022-10-19T05:24:58.190Z,101323.81
2022-10-19T05:30:01.114Z,101323.81
2022-10-19T05:35:05.725Z,101331.72
2022-10-19T05:40:09.817Z,101327.72
2022-10-19T05:45:12.426Z,101339.91
2022-10-19T05:50:16.567Z,101335.97
2022-10-19T05:55:19.179Z,101344.56
2022-10-19T06:00:21.996Z,101353.97
2022-10-19T06:05:26.118Z,101349.38
2022-10-19T06:10:28.884Z,101356.00
2022-10-19T06:15:35.734Z,101350.38
2022-10-19T06:20:41.706Z,101357.44
2022-10-19T06:25:44.683Z,101368.97
2022-10-19T06:30:47.508Z,101371.28
2022-10-19T06:35:51.564Z,101377.78
2022-10-19T06:40:54.242Z,101373.22
2022-10-19T06:45:57.101Z,101377.97
2022-10-19T06:51:02.534Z,101377.41
2022-10-19T06:56:07.313Z,101385.72
2022-10-19T07:01:11.853Z,101392.97
2022-10-19T07:06:16.214Z,101388.91
2022-10-19T07:11:22.277Z,101401.31
2022-10-19T07:16:24.886Z,101401.16
2022-10-19T07:21:28.913Z,101406.31
2022-10-19T07:26:33.648Z,101408.59
2022-10-19T07:31:36.311Z,101415.69
2022-10-19T07:36:44.838Z,101424.88
2022-10-19T07:41:47.696Z,101420.16
2022-10-19T07:46:50.341Z,101420.69
2022-10-19T07:51:56.162Z,101419.47
2022-10-19T07:56:59.113Z,101420.03
2022-10-19T08:02:04.738Z,101422.66
2022-10-19T08:07:09.945Z,101428.63
2022-10-19T08:12:15.311Z,101436.59
2022-10-19T08:17:18.332Z,101432.13
2022-10-19T08:22:22.442Z,101438.94
2022-10-19T08:27:25.279Z,101436.06
2022-10-19T08:32:27.931Z,101433.28
2022-10-19T08:37:44.222Z,101432.63
2022-10-19T08:42:54.136Z,101428.88
2022-10-19T08:48:01.197Z,101430.69
2022-10-19T08:53:11.393Z,101425.72
2022-10-19T08:58:23.998Z,101424.47
2022-10-19T09:03:54.513Z,101415.72
2022-10-19T09:08:58.611Z,101419.63
2022-10-19T09:14:06.174Z,101429.63
2022-10-19T09:19:14.652Z,101424.81
2022-10-19T09:24:28.188Z,101422.44
2022-10-19T09:29:36.782Z,101418.59
2022-10-19T09:34:42.688Z,101433.16
2022-10-19T09:39:52.398Z,101432.78
2022-10-19T09:44:59.658Z,101431.66
2022-10-19T09:50:16.648Z,101439.69
2022-10-19T09:55:27.027Z,101435.69
2022-10-19T10:00:37.393Z,101431.09
2022-10-19T10:05:41.207Z,101432.94
2022-10-19T10:11:05.648Z,101427.41
2022-10-19T10:16:09.854Z,101429.59
2022-10-19T10:21:15.400Z,101433.75
2022-10-19T10:26:20.648Z,101434.03
2022-10-19T10:31:25.637Z,101429.56
2022-10-19T10:36:29.619Z,101435.53
2022-10-19T10:41:38.506Z,101427.22
2022-10-19T10:46:45.811Z,101431.38
2022-10-19T10:51:53.090Z,101430.81
2022-10-19T10:57:06.814Z,101430.31
2022-10-19T11:02:18.649Z,101437.53
2022-10-19T11:07:24.142Z,101430.13
2022-10-19T11:12:35.345Z,101424.44
2022-10-19T11:17:38.953Z,101419.44
2022-10-19T11:22:45.961Z,101424.75
2022-10-19T11:27:54.395Z,101413.78
2022-10-19T11:33:01.383Z,101419.88
2022-10-19T11:38:20.140Z,101418.22
2022-10-19T11:43:32.689Z,101411.97
2022-10-19T11:48:54.894Z,101396.69
2022-10-19T11:54:08.963Z,101402.78
2022-10-19T11:59:20.685Z,101402.06
2022-10-19T12:04:43.530Z,101402.38
2022-10-19T12:09:52.010Z,101387.38
2022-10-19T12:15:00.673Z,101389.88
2022-10-19T12:20:06.623Z,101382.13
2022-10-19T12:25:14.053Z,101381.25
2022-10-19T12:30:19.681Z,101380.28
2022-10-19T12:35:31.624Z,101376.13
2022-10-19T12:40:39.656Z,101374.31
2022-10-19T12:45:45.744Z,101371.69
2022-10-19T12:51:05.971Z,101369.91
2022-10-19T12:56:11.074Z,101366.66
2022-10-19T13:01:19.399Z,101366.81
2022-10-19T13:06:31.892Z,101360.00
2022-10-19T13:17:01.180Z,101353.06
2022-10-19T13:22:26.658Z,101352.66
2022-10-19T13:27:38.540Z,101352.13
2022-10-19T13:32:44.912Z,101347.38
2022-10-19T13:37:47.667Z,101349.59
2022-10-19T13:42:58.839Z,101344.44
2022-10-19T13:48:09.910Z,101346.13
2022-10-19T13:53:23.398Z,101350.16
2022-10-19T13:58:39.628Z,101345.00
2022-10-19T14:03:56.433Z,101361.84
2022-10-19T14:09:22.782Z,101341.69
2022-10-19T14:14:26.111Z,101341.00
2022-10-19T14:19:41.853Z,101336.03
2022-10-19T14:24:44.602Z,101333.78
2022-10-19T14:29:49.292Z,101331.00
2022-10-19T14:34:54.566Z,101325.59
2022-10-19T14:40:06.613Z,101326.59
2022-10-19T14:45:17.808Z,101323.09
2022-10-19T14:50:24.508Z,101327.00
2022-10-19T14:55:32.492Z,101327.56
2022-10-19T15:00:35.369Z,101329.78
2022-10-19T15:05:42.501Z,101323.53
2022-10-19T15:10:46.630Z,101316.59
2022-10-19T15:15:51.611Z,101318.09
2022-10-19T15:21:12.469Z,101309.38
2022-10-19T15:26:21.524Z,101314.66
2022-10-19T15:31:26.451Z,101312.56
2022-10-19T15:36:31.352Z,101315.78
2022-10-19T15:41:35.818Z,101310.78
2022-10-19T15:47:22.203Z,101308.97
2022-10-19T15:52:27.535Z,101309.22
2022-10-19T15:57:32.440Z,101306.75
2022-10-19T16:02:35.531Z,101302.72
2022-10-19T16:07:41.509Z,101293.56
2022-10-19T16:12:44.235Z,101297.03
2022-10-19T16:17:48.481Z,101292.72
2022-10-19T16:22:52.714Z,101297.56
2022-10-19T16:27:55.374Z,101305.63
2022-10-19T16:32:58.100Z,101307.41
2022-10-19T16:38:02.053Z,101313.50
2022-10-19T16:43:04.814Z,101310.19
2022-10-19T16:48:07.544Z,101310.97
2022-10-19T16:53:12.197Z,101316.25
2022-10-19T16:58:14.917Z,101309.13
2022-10-19T17:03:17.573Z,101307.47
2022-10-19T17:08:23.882Z,101311.22
2022-10-19T17:13:29.057Z,101310.47
2022-10-19T17:18:31.862Z,101314.00
2022-10-19T17:23:36.219Z,101310.63
2022-10-19T17:28:40.016Z,101316.84
2022-10-19T17:33:42.788Z,101313.94
2022-10-19T17:38:47.511Z,101309.22
2022-10-19T17:43:52.608Z,101319.22
2022-10-19T17:48:55.297Z,101311.03
2022-10-19T17:54:00.903Z,101318.03
2022-10-19T17:59:04.047Z,101319.88
2022-10-19T18:04:06.943Z,101310.31
2022-10-19T18:09:10.953Z,101317.28
2022-10-19T18:14:13.991Z,101313.50
2022-10-19T18:19:17.679Z,101318.88
2022-10-19T18:24:21.668Z,101317.13
2022-10-19T18:29:26.014Z,101314.75
2022-10-19T18:34:28.909Z,101313.47
2022-10-19T18:39:33.218Z,101310.84
2022-10-19T18:44:35.886Z,101305.50
2022-10-19T18:49:38.605Z,101299.19
2022-10-19T18:54:42.541Z,101297.41
2022-10-19T18:59:45.156Z,101294.78
2022-10-19T19:04:47.850Z,101281.88
2022-10-19T19:09:52.136Z,101286.09
2022-10-19T19:14:54.756Z,101280.13
2022-10-19T19:19:57.447Z,101278.81
2022-10-19T19:25:01.554Z,101279.31
2022-10-19T19:30:04.803Z,101283.00
2022-10-19T19:35:07.987Z,101291.97
2022-10-19T19:40:12.749Z,101287.34
2022-10-19T19:45:15.805Z,101295.19
2022-10-19T19:50:18.771Z,101297.22
2022-10-19T19:55:22.800Z,101288.78
2022-10-19T20:00:25.742Z,101299.72
2022-10-19T20:05:29.103Z,101291.28
2022-10-19T20:10:33.353Z,101297.94
2022-10-19T20:15:38.639Z,101309.50
2022-10-19T20:20:41.512Z,101302.25
2022-10-19T20:25:45.400Z,101301.50
2022-10-19T20:30:48.033Z,101306.84
2022-10-19T20:35:50.649Z,101302.59
2022-10-19T20:40:54.815Z,101295.78
2022-10-19T20:46:03.187Z,101308.06
2022-10-19T20:51:10.298Z,101295.78
2022-10-19T20:56:15.682Z,101291.34
2022-10-19T21:01:19.896Z,101275.53
2022-10-19T21:06:24.186Z,101286.38
2022-10-19T21:11:29.922Z,101274.53
2022-10-19T21:16:33.880Z,101268.34
2022-10-19T21:21:38.419Z,101256.31
2022-10-19T21:26:42.681Z,101246.94
2022-10-19T21:31:48.807Z,101249.78
2022-10-19T21:36:52.660Z,101245.56
2022-10-19T21:41:57.234Z,101249.84
2022-10-19T21:47:00.175Z,101242.56
2022-10-19T21:52:02.913Z,101242.56
2022-10-19T21:57:06.817Z,101236.63
2022-10-19T22:02:09.574Z,101235.31
2022-10-19T22:07:12.407Z,101223.16
2022-10-19T22:12:16.399Z,101215.28
2022-10-19T22:17:19.183Z,101224.44
2022-10-19T22:22:21.932Z,101222.44
2022-10-19T22:27:26.147Z,101224.25
2022-10-19T22:32:28.733Z,101214.00
2022-10-19T22:37:31.464Z,101214.09
2022-10-19T22:42:36.024Z,101214.00
2022-10-19T22:47:38.876Z,101201.47
2022-10-19T22:52:41.561Z,101192.56
2022-10-19T22:57:45.512Z,101194.34
2022-10-19T23:02:48.115Z,101194.44
2022-10-19T23:07:50.760Z,101189.56
2022-10-19T23:12:55.008Z,101186.22
2022-10-19T23:17:58.964Z,101183.38
2022-10-19T23:23:01.690Z,101180.16
2022-10-19T23:28:06.015Z,101169.97
2022-10-19T23:33:08.674Z,101163.44
2022-10-19T23:38:11.323Z,101159.03
2022-10-19T23:43:15.273Z,101157.47
2022-10-19T23:48:18.074Z,101157.59
2022-10-19T23:53:20.781Z,101150.91
2022-10-19T23:58:24.779Z,101152.47
